createdAt,value
2023-01-09T00:00:04.133Z,3.32
2023-01-09T00:02:36.002Z,3.29
2023-01-09T00:05:08.733Z,3.28
2023-01-09T00:07:39.891Z,3.26
2023-01-09T00:10:12.889Z,3.23
2023-01-09T00:12:44.004Z,3.21
2023-01-09T00:15:15.052Z,3.21
2023-01-09T00:17:48.331Z,3.22
2023-01-09T00:20:19.119Z,3.23
2023-01-09T00:22:50.247Z,3.25
2023-01-09T00:25:22.906Z,3.25
2023-01-09T00:27:53.737Z,3.26
2023-01-09T00:30:24.566Z,3.28
2023-01-09T00:32:56.732Z,3.29
2023-01-09T00:35:29.593Z,3.32
2023-01-09T00:38:00.375Z,3.33
2023-01-09T00:40:31.218Z,3.33
2023-01-09T00:43:02.262Z,3.36
2023-01-09T00:45:33.398Z,3.38
2023-01-09T00:48:10.171Z,3.38
2023-01-09T00:50:41.163Z,3.39
2023-01-09T00:53:15.367Z,3.39
2023-01-09T00:55:46.187Z,3.40
2023-01-09T00:58:17.032Z,3.41
2023-01-09T01:00:47.995Z,3.42
2023-01-09T01:03:18.783Z,3.43
2023-01-09T01:06:07.305Z,3.42
2023-01-09T01:08:37.983Z,3.42
2023-01-09T01:11:10.468Z,3.42
2023-01-09T01:13:42.629Z,3.42
2023-01-09T01:16:15.320Z,3.41
2023-01-09T01:18:46.156Z,3.38
2023-01-09T01:21:18.171Z,3.38
2023-01-09T01:23:49.171Z,3.39
2023-01-09T01:26:20.307Z,3.40
2023-01-09T01:28:51.136Z,3.40
2023-01-09T01:31:22.302Z,3.41
2023-01-09T01:33:53.176Z,3.41
2023-01-09T01:36:23.945Z,3.39
2023-01-09T01:38:54.672Z,3.38
2023-01-09T01:41:30.431Z,3.38
2023-01-09T01:44:04.551Z,3.39
2023-01-09T01:46:36.516Z,3.40
2023-01-09T01:49:14.407Z,3.40
2023-01-09T01:51:51.051Z,3.40
2023-01-09T01:54:27.663Z,3.40
2023-01-09T01:57:02.531Z,3.40
2023-01-09T01:59:38.597Z,3.41
2023-01-09T02:02:11.373Z,3.44
2023-01-09T02:04:42.948Z,3.48
2023-01-09T02:07:14.144Z,3.53
2023-01-09T02:09:46.245Z,3.56
2023-01-09T02:12:23.768Z,3.57
2023-01-09T02:14:59.476Z,3.58
2023-01-09T02:17:57.999Z,3.55
2023-01-09T02:20:44.839Z,3.54
2023-01-09T02:23:48.010Z,3.52
2023-01-09T02:26:48.279Z,3.52
2023-01-09T02:29:45.333Z,3.56
2023-01-09T02:32:28.662Z,3.59
2023-01-09T02:35:12.665Z,3.64
2023-01-09T02:37:50.140Z,3.68
2023-01-09T02:40:28.956Z,3.69
2023-01-09T02:43:01.762Z,3.71
2023-01-09T02:45:32.477Z,3.73
2023-01-09T02:48:03.229Z,3.75
2023-01-09T02:50:42.861Z,3.76
2023-01-09T02:53:49.766Z,3.78
2023-01-09T02:56:43.126Z,3.83
2023-01-09T02:59:23.659Z,3.86
2023-01-09T03:02:09.031Z,3.85
2023-01-09T03:04:51.122Z,3.85
2023-01-09T03:07:26.752Z,3.88
2023-01-09T03:10:07.659Z,3.88
2023-01-09T03:12:41.047Z,3.89
2023-01-09T03:15:16.415Z,3.91
2023-01-09T03:17:52.107Z,3.95
2023-01-09T03:20:27.708Z,3.96
2023-01-09T03:23:01.197Z,3.97
2023-01-09T03:25:33.225Z,3.99
2023-01-09T03:28:06.106Z,4.01
2023-01-09T03:30:38.006Z,4.01
2023-01-09T03:33:08.732Z,4.05
2023-01-09T03:35:39.483Z,4.08
2023-01-09T03:38:10.215Z,4.11
2023-01-09T03:40:43.296Z,4.14
2023-01-09T03:43:14.176Z,4.14
2023-01-09T03:45:45.052Z,4.16
2023-01-09T03:48:15.923Z,4.19
2023-01-09T03:50:47.479Z,4.22
2023-01-09T03:53:18.623Z,4.26
2023-01-09T03:55:51.925Z,4.30
2023-01-09T03:58:23.779Z,4.31
2023-01-09T04:00:58.662Z,4.33
2023-01-09T04:03:29.737Z,4.36
2023-01-09T04:06:00.966Z,4.36
2023-01-09T04:08:31.800Z,4.34
2023-01-09T04:11:03.686Z,4.33
2023-01-09T04:13:36.735Z,4.32
2023-01-09T04:16:08.445Z,4.27
2023-01-09T04:18:39.148Z,4.23
2023-01-09T04:21:09.886Z,4.19
2023-01-09T04:23:40.622Z,4.18
2023-01-09T04:26:11.322Z,4.17
2023-01-09T04:28:42.127Z,4.17
2023-01-09T04:31:13.631Z,4.17
2023-01-09T04:33:44.623Z,4.19
2023-01-09T04:36:15.569Z,4.17
2023-01-09T04:38:46.413Z,4.17
2023-01-09T04:41:37.080Z,4.17
2023-01-09T04:44:07.955Z,4.17
2023-01-09T04:46:38.892Z,4.19
2023-01-09T04:49:09.739Z,4.20
2023-01-09T04:51:41.031Z,4.21
2023-01-09T04:54:12.268Z,4.20
2023-01-09T04:56:43.162Z,4.18
2023-01-09T04:59:14.411Z,4.17
2023-01-09T05:01:45.340Z,4.18
2023-01-09T05:04:16.431Z,4.20
2023-01-09T05:06:47.329Z,4.21
2023-01-09T05:09:18.545Z,4.21
2023-01-09T05:11:49.359Z,4.21
2023-01-09T05:14:20.254Z,4.22
2023-01-09T05:16:51.129Z,4.22
2023-01-09T05:19:23.774Z,4.21
2023-01-09T05:21:54.471Z,4.21
2023-01-09T05:24:25.782Z,4.21
2023-01-09T05:26:56.477Z,4.25
2023-01-09T05:29:27.842Z,4.25
2023-01-09T05:31:59.172Z,4.26
2023-01-09T05:34:29.924Z,4.28
2023-01-09T05:37:00.865Z,4.30
2023-01-09T05:39:31.553Z,4.33
2023-01-09T05:42:02.344Z,4.35
2023-01-09T05:44:33.055Z,4.38
2023-01-09T05:47:03.846Z,4.42
2023-01-09T05:49:35.051Z,4.44
2023-01-09T05:52:06.094Z,4.45
2023-01-09T05:54:36.932Z,4.45
2023-01-09T05:57:07.722Z,4.46
2023-01-09T05:59:38.504Z,4.48
2023-01-09T06:02:09.743Z,4.51
2023-01-09T06:04:40.608Z,4.53
2023-01-09T06:07:11.942Z,4.54
2023-01-09T06:09:43.913Z,4.55
2023-01-09T06:12:14.741Z,4.56
2023-01-09T06:14:45.580Z,4.57
2023-01-09T06:17:16.715Z,4.60
2023-01-09T06:19:48.209Z,4.60
2023-01-09T06:22:18.912Z,4.61
2023-01-09T06:24:49.546Z,4.57
2023-01-09T06:27:20.285Z,4.56
2023-01-09T06:29:51.167Z,4.58
2023-01-09T06:32:22.279Z,4.59
2023-01-09T06:34:52.944Z,4.59
2023-01-09T06:37:23.730Z,4.57
2023-01-09T06:39:54.992Z,4.54
2023-01-09T06:42:25.785Z,4.51
2023-01-09T06:44:56.434Z,4.48
2023-01-09T06:47:27.134Z,4.47
2023-01-09T06:49:58.379Z,4.46
2023-01-09T06:52:29.034Z,4.45
2023-01-09T06:54:59.688Z,4.45
2023-01-09T06:57:30.353Z,4.47
2023-01-09T07:00:01.143Z,4.49
2023-01-09T07:02:31.898Z,4.50
2023-01-09T07:05:02.759Z,4.51
2023-01-09T07:07:33.523Z,4.52
2023-01-09T07:10:04.238Z,4.52
2023-01-09T07:12:35.063Z,4.51
2023-01-09T07:15:06.647Z,4.53
2023-01-09T07:17:37.437Z,4.54
2023-01-09T07:20:10.510Z,4.60
2023-01-09T07:22:41.173Z,4.67
2023-01-09T07:25:12.223Z,4.69
2023-01-09T07:27:43.470Z,4.70
2023-01-09T07:30:16.984Z,4.70
2023-01-09T07:32:47.653Z,4.71
2023-01-09T07:35:18.546Z,4.71
2023-01-09T07:37:50.271Z,4.74
2023-01-09T07:40:21.282Z,4.80
2023-01-09T07:42:56.726Z,4.84
2023-01-09T07:45:27.533Z,4.86
2023-01-09T07:47:59.225Z,4.89
2023-01-09T07:50:29.979Z,4.91
2023-01-09T07:53:00.791Z,4.94
2023-01-09T07:55:31.395Z,5.01
2023-01-09T07:58:02.176Z,5.10
2023-01-09T08:00:33.289Z,5.19
2023-01-09T08:03:04.256Z,5.28
2023-01-09T08:05:35.026Z,5.38
2023-01-09T08:08:07.213Z,5.47
2023-01-09T08:10:37.870Z,5.53
2023-01-09T08:13:08.584Z,5.57
2023-01-09T08:15:39.395Z,5.65
2023-01-09T08:18:10.167Z,5.67
2023-01-09T08:20:40.938Z,5.61
2023-01-09T08:23:11.752Z,5.54
2023-01-09T08:25:42.709Z,5.51
2023-01-09T08:28:13.422Z,5.48
2023-01-09T08:30:44.246Z,5.46
2023-01-09T08:33:15.067Z,5.46
2023-01-09T08:35:46.897Z,5.49
2023-01-09T08:38:17.645Z,5.54
2023-01-09T08:40:51.131Z,5.65
2023-01-09T08:43:39.511Z,5.88
2023-01-09T08:46:36.353Z,6.04
2023-01-09T08:49:07.184Z,6.10
2023-01-09T08:51:37.893Z,6.17
2023-01-09T08:54:08.595Z,6.27
2023-01-09T08:56:39.254Z,6.32
2023-01-09T08:59:11.205Z,6.35
2023-01-09T09:01:42.054Z,6.41
2023-01-09T09:04:13.161Z,6.41
2023-01-09T09:06:43.931Z,6.35
2023-01-09T09:09:15.187Z,6.29
2023-01-09T09:11:45.927Z,6.26
2023-01-09T09:14:34.359Z,6.25
2023-01-09T09:17:05.037Z,6.21
2023-01-09T09:19:35.754Z,6.14
2023-01-09T09:22:06.546Z,6.06
2023-01-09T09:24:37.592Z,5.99
2023-01-09T09:27:08.407Z,5.92
2023-01-09T09:29:39.153Z,5.87
2023-01-09T09:32:09.851Z,5.85
2023-01-09T09:34:40.650Z,5.84
2023-01-09T09:37:11.515Z,5.86
2023-01-09T09:39:42.500Z,5.88
2023-01-09T09:42:44.717Z,5.93
2023-01-09T09:45:27.434Z,5.95
2023-01-09T09:48:09.023Z,5.97
2023-01-09T09:50:59.303Z,5.95
2023-01-09T09:53:36.483Z,5.94
2023-01-09T09:56:12.226Z,5.92
2023-01-09T09:58:45.643Z,5.90
2023-01-09T10:01:21.934Z,5.86
2023-01-09T10:03:57.127Z,5.82
2023-01-09T10:06:31.832Z,5.75
2023-01-09T10:09:08.254Z,5.70
2023-01-09T10:11:45.269Z,5.67
2023-01-09T10:14:23.725Z,5.67
2023-01-09T10:17:17.467Z,5.68
2023-01-09T10:20:01.819Z,5.69
2023-01-09T10:22:45.398Z,5.69
2023-01-09T10:25:29.126Z,5.68
2023-01-09T10:28:24.646Z,5.64
2023-01-09T10:30:59.253Z,5.62
2023-01-09T10:33:43.100Z,5.61
2023-01-09T10:36:43.310Z,5.63
2023-01-09T10:39:20.095Z,5.62
2023-01-09T10:41:59.453Z,5.59
2023-01-09T10:44:37.282Z,5.58
2023-01-09T10:47:16.730Z,5.59
2023-01-09T10:49:50.717Z,5.59
2023-01-09T10:52:25.750Z,5.60
2023-01-09T10:55:01.206Z,5.61
2023-01-09T10:57:43.704Z,5.59
2023-01-09T11:00:26.046Z,5.59
2023-01-09T11:02:59.587Z,5.60
2023-01-09T11:05:33.066Z,5.60
2023-01-09T11:08:07.580Z,5.60
2023-01-09T11:10:50.076Z,5.62
2023-01-09T11:13:24.326Z,5.65
2023-01-09T11:16:10.277Z,5.67
2023-01-09T11:18:49.664Z,5.70
2023-01-09T11:21:35.949Z,5.72
2023-01-09T11:24:29.719Z,5.76
2023-01-09T11:27:29.033Z,5.81
2023-01-09T11:30:17.292Z,5.83
2023-01-09T11:32:49.547Z,5.84
2023-01-09T11:35:26.614Z,5.84
2023-01-09T11:38:17.766Z,5.84
2023-01-09T11:40:51.848Z,5.85
2023-01-09T11:43:41.788Z,5.84
2023-01-09T11:46:31.077Z,5.84
2023-01-09T11:49:03.396Z,5.83
2023-01-09T11:51:35.684Z,5.82
2023-01-09T11:54:17.822Z,5.81
2023-01-09T11:56:49.223Z,5.80
2023-01-09T11:59:22.652Z,5.80
2023-01-09T12:02:29.513Z,5.77
2023-01-09T12:05:02.917Z,5.74
2023-01-09T12:08:06.067Z,5.71
2023-01-09T12:11:07.650Z,5.67
2023-01-09T12:13:55.728Z,5.65
2023-01-09T12:16:37.346Z,5.60
2023-01-09T12:19:28.563Z,5.58
2023-01-09T12:22:11.645Z,5.62
2023-01-09T12:25:07.443Z,5.66
2023-01-09T12:27:55.872Z,5.70
2023-01-09T12:30:41.565Z,5.71
2023-01-09T12:33:28.449Z,5.75
2023-01-09T12:36:10.811Z,5.79
2023-01-09T12:38:55.627Z,5.81
2023-01-09T12:41:43.816Z,5.84
2023-01-09T12:44:44.236Z,5.87
2023-01-09T12:47:45.459Z,5.88
2023-01-09T12:50:40.352Z,5.89
2023-01-09T12:53:21.022Z,5.90
2023-01-09T12:56:01.167Z,5.91
2023-01-09T12:58:44.798Z,5.93
2023-01-09T13:01:23.344Z,5.94
2023-01-09T13:04:04.166Z,5.95
2023-01-09T13:06:38.766Z,5.97
2023-01-09T13:09:22.691Z,6.00
2023-01-09T13:12:03.378Z,6.03
2023-01-09T13:14:47.114Z,6.05
2023-01-09T13:17:24.381Z,6.06
2023-01-09T13:19:55.170Z,6.06
2023-01-09T13:22:28.874Z,6.05
2023-01-09T13:25:22.627Z,6.05
2023-01-09T13:28:00.605Z,6.05
2023-01-09T13:30:49.420Z,6.06
2023-01-09T13:33:25.067Z,6.10
2023-01-09T13:35:58.547Z,6.12
2023-01-09T13:38:31.731Z,6.15
2023-01-09T13:41:32.243Z,6.16
2023-01-09T13:44:05.849Z,6.20
2023-01-09T13:46:43.498Z,6.22
2023-01-09T13:49:54.450Z,6.24
2023-01-09T13:52:39.810Z,6.27
2023-01-09T13:55:30.151Z,6.29
2023-01-09T13:58:27.834Z,6.32
2023-01-09T14:01:02.346Z,6.34
2023-01-09T14:03:38.631Z,6.36
2023-01-09T14:06:19.423Z,6.37
2023-01-09T14:09:06.655Z,6.39
2023-01-09T14:11:37.899Z,6.41
2023-01-09T14:14:23.038Z,6.41
2023-01-09T14:16:53.786Z,6.43
2023-01-09T14:19:35.928Z,6.42
2023-01-09T14:22:07.731Z,6.41
2023-01-09T14:24:44.259Z,6.43
2023-01-09T14:27:45.714Z,6.44
2023-01-09T14:30:35.147Z,6.45
2023-01-09T14:33:26.298Z,6.48
2023-01-09T14:36:10.086Z,6.50
2023-01-09T14:38:45.075Z,6.52
2023-01-09T14:41:55.299Z,6.54
2023-01-09T14:44:29.971Z,6.56
2023-01-09T14:47:06.672Z,6.59
2023-01-09T14:49:42.176Z,6.60
2023-01-09T14:52:24.918Z,6.61
2023-01-09T14:54:58.979Z,6.63
2023-01-09T14:57:31.894Z,6.64
2023-01-09T15:00:05.210Z,6.62
2023-01-09T15:02:38.507Z,6.61
2023-01-09T15:05:14.531Z,6.62
2023-01-09T15:07:50.539Z,6.64
2023-01-09T15:10:24.579Z,6.66
2023-01-09T15:12:58.898Z,6.68
2023-01-09T15:15:30.176Z,6.68
2023-01-09T15:18:03.701Z,6.69
2023-01-09T15:20:36.165Z,6.70
2023-01-09T15:23:07.100Z,6.72
2023-01-09T15:25:40.215Z,6.77
2023-01-09T15:28:27.059Z,6.79
2023-01-09T15:31:02.182Z,6.81
2023-01-09T15:33:31.652Z,6.82
2023-01-09T15:36:04.886Z,6.84
2023-01-09T15:38:36.678Z,6.85
2023-01-09T15:41:11.798Z,6.88
2023-01-09T15:43:45.288Z,6.90
2023-01-09T15:46:18.442Z,6.92
2023-01-09T15:48:56.383Z,6.92
2023-01-09T15:51:27.892Z,6.93
2023-01-09T15:54:00.876Z,6.94
2023-01-09T15:56:33.414Z,6.94
2023-01-09T15:59:18.172Z,6.95
2023-01-09T16:02:09.006Z,6.98
2023-01-09T16:04:43.085Z,7.00
2023-01-09T16:07:17.581Z,7.00
2023-01-09T16:09:52.728Z,7.02
2023-01-09T16:12:26.055Z,7.04
2023-01-09T16:15:00.444Z,7.05
2023-01-09T16:17:31.992Z,7.07
2023-01-09T16:20:16.778Z,7.07
2023-01-09T16:22:57.572Z,7.07
2023-01-09T16:25:32.698Z,7.09
2023-01-09T16:30:57.785Z,7.10
2023-01-09T16:33:30.679Z,7.11
2023-01-09T16:36:02.843Z,7.11
2023-01-09T16:38:33.549Z,7.13
2023-01-09T16:41:23.848Z,7.12
2023-01-09T16:43:54.549Z,7.13
2023-01-09T16:46:25.560Z,7.14
2023-01-09T16:48:57.575Z,7.14
2023-01-09T16:51:29.661Z,7.16
2023-01-09T16:54:00.343Z,7.18
2023-01-09T16:56:33.056Z,7.19
2023-01-09T16:59:03.754Z,7.21
2023-01-09T17:01:34.456Z,7.22
2023-01-09T17:04:13.679Z,7.25
2023-01-09T17:06:45.274Z,7.26
2023-01-09T17:09:18.553Z,7.27
2023-01-09T17:11:49.310Z,7.28
2023-01-09T17:14:20.019Z,7.29
2023-01-09T17:16:50.831Z,7.31
2023-01-09T17:19:25.523Z,7.32
2023-01-09T17:21:56.236Z,7.32
2023-01-09T17:24:44.663Z,7.34
2023-01-09T17:27:33.050Z,7.36
2023-01-09T17:30:17.576Z,7.37
2023-01-09T17:32:49.491Z,7.37
2023-01-09T17:35:20.212Z,7.38
2023-01-09T17:37:50.874Z,7.38
2023-01-09T17:40:24.240Z,7.37
2023-01-09T17:42:55.024Z,7.39
2023-01-09T17:45:25.778Z,7.39
2023-01-09T17:47:56.557Z,7.40
2023-01-09T17:50:31.223Z,7.40
2023-01-09T17:53:02.006Z,7.41
2023-01-09T17:55:34.975Z,7.43
2023-01-09T17:58:05.899Z,7.44
2023-01-09T18:00:37.705Z,7.46
2023-01-09T18:03:08.787Z,7.48
2023-01-09T18:05:39.461Z,7.48
2023-01-09T18:08:13.923Z,7.48
2023-01-09T18:10:48.422Z,7.50
2023-01-09T18:13:19.750Z,7.50
2023-01-09T18:15:50.534Z,7.50
2023-01-09T18:18:22.553Z,7.51
2023-01-09T18:20:53.843Z,7.53
2023-01-09T18:23:24.924Z,7.54
2023-01-09T18:25:55.575Z,7.56
2023-01-09T18:28:26.338Z,7.56
2023-01-09T18:30:57.066Z,7.57
2023-01-09T18:33:28.031Z,7.58
2023-01-09T18:36:06.161Z,7.60
2023-01-09T18:38:37.587Z,7.62
2023-01-09T18:41:08.722Z,7.65
2023-01-09T18:43:39.414Z,7.66
2023-01-09T18:46:10.584Z,7.68
2023-01-09T18:48:41.430Z,7.69
2023-01-09T18:51:12.143Z,7.71
2023-01-09T18:53:42.961Z,7.73
2023-01-09T18:56:13.690Z,7.75
2023-01-09T18:58:44.344Z,7.75
2023-01-09T19:01:15.404Z,7.75
2023-01-09T19:03:46.173Z,7.76
2023-01-09T19:06:16.970Z,7.75
2023-01-09T19:08:47.756Z,7.75
2023-01-09T19:11:18.515Z,7.75
2023-01-09T19:13:50.807Z,7.75
2023-01-09T19:16:21.631Z,7.75
2023-01-09T19:18:52.424Z,7.77
2023-01-09T19:21:26.843Z,7.78
2023-01-09T19:23:58.936Z,7.79
2023-01-09T19:26:31.281Z,7.79
2023-01-09T19:29:02.089Z,7.80
2023-01-09T19:31:34.189Z,7.81
2023-01-09T19:34:04.949Z,7.82
2023-01-09T19:36:35.973Z,7.83
2023-01-09T19:39:07.413Z,7.86
2023-01-09T19:41:38.306Z,7.87
2023-01-09T19:44:09.097Z,7.88
2023-01-09T19:46:39.985Z,7.89
2023-01-09T19:49:10.790Z,7.92
2023-01-09T19:51:42.487Z,7.95
2023-01-09T19:54:13.754Z,7.97
2023-01-09T19:56:45.736Z,7.98
2023-01-09T19:59:16.444Z,8.00
2023-01-09T20:01:48.080Z,8.01
2023-01-09T20:04:18.819Z,8.01
2023-01-09T20:06:51.311Z,8.00
2023-01-09T20:09:22.743Z,8.01
2023-01-09T20:11:53.412Z,7.99
2023-01-09T20:14:24.767Z,7.98
2023-01-09T20:17:00.904Z,7.95
2023-01-09T20:19:32.655Z,7.93
2023-01-09T20:22:03.523Z,7.90
2023-01-09T20:24:34.248Z,7.92
2023-01-09T20:27:05.023Z,7.91
2023-01-09T20:29:36.073Z,7.90
2023-01-09T20:32:07.810Z,7.89
2023-01-09T20:34:38.888Z,7.86
2023-01-09T20:37:09.650Z,7.84
2023-01-09T20:39:40.810Z,7.82
2023-01-09T20:42:11.864Z,7.80
2023-01-09T20:44:42.519Z,7.78
2023-01-09T20:47:13.253Z,7.79
2023-01-09T20:49:44.035Z,7.79
2023-01-09T20:52:14.708Z,7.77
2023-01-09T20:54:46.129Z,7.77
2023-01-09T20:57:16.788Z,7.76
2023-01-09T20:59:47.586Z,7.76
2023-01-09T21:02:18.535Z,7.77
2023-01-09T21:04:49.392Z,7.76
2023-01-09T21:07:20.418Z,7.76
2023-01-09T21:09:51.047Z,7.74
2023-01-09T21:12:35.691Z,7.72
2023-01-09T21:15:09.919Z,7.72
2023-01-09T21:17:42.196Z,7.72
2023-01-09T21:20:15.975Z,7.71
2023-01-09T21:22:46.699Z,7.71
2023-01-09T21:25:17.600Z,7.70
2023-01-09T21:27:49.778Z,7.69
2023-01-09T21:30:20.684Z,7.69
2023-01-09T21:32:51.905Z,7.67
2023-01-09T21:35:22.658Z,7.67
2023-01-09T21:37:53.375Z,7.66
2023-01-09T21:40:24.134Z,7.64
2023-01-09T21:43:12.691Z,7.64
2023-01-09T21:46:01.320Z,7.63
2023-01-09T21:48:32.121Z,7.62
2023-01-09T21:51:05.905Z,7.61
2023-01-09T21:53:36.696Z,7.60
2023-01-09T21:56:08.790Z,7.60
2023-01-09T21:58:39.649Z,7.59
2023-01-09T22:01:10.451Z,7.59
2023-01-09T22:03:41.145Z,7.57
2023-01-09T22:06:12.313Z,7.55
2023-01-09T22:08:43.095Z,7.54
2023-01-09T22:11:16.099Z,7.51
2023-01-09T22:13:51.390Z,7.48
2023-01-09T22:16:21.260Z,7.47
2023-01-09T22:18:51.959Z,7.45
2023-01-09T22:21:22.989Z,7.45
2023-01-09T22:23:53.925Z,7.44
2023-01-09T22:26:24.756Z,7.43
2023-01-09T22:28:57.099Z,7.43
2023-01-09T22:31:29.784Z,7.43
2023-01-09T22:34:02.508Z,7.44
2023-01-09T22:36:33.420Z,7.44
2023-01-09T22:39:04.673Z,7.44
2023-01-09T22:41:35.404Z,7.44
2023-01-09T22:44:06.158Z,7.44
2023-01-09T22:46:37.025Z,7.44
2023-01-09T22:49:07.853Z,7.44
2023-01-09T22:51:38.783Z,7.44
2023-01-09T22:54:09.587Z,7.44
2023-01-09T22:56:40.469Z,7.43
2023-01-09T22:59:11.509Z,7.44
2023-01-09T23:01:42.237Z,7.43
2023-01-09T23:04:16.479Z,7.44
2023-01-09T23:06:47.267Z,7.45
2023-01-09T23:09:18.006Z,7.46
2023-01-09T23:12:03.966Z,7.46
2023-01-09T23:14:37.418Z,7.46
2023-01-09T23:17:09.753Z,7.44
2023-01-09T23:19:40.989Z,7.44
2023-01-09T23:22:11.767Z,7.44
2023-01-09T23:24:42.516Z,7.44
2023-01-09T23:27:13.189Z,7.45
2023-01-09T23:29:45.998Z,7.46
2023-01-09T23:32:16.750Z,7.46
2023-01-09T23:34:49.546Z,7.46
2023-01-09T23:37:20.204Z,7.47
2023-01-09T23:39:51.058Z,7.47
2023-01-09T23:42:39.787Z,7.46
2023-01-09T23:45:11.947Z,7.46
2023-01-09T23:47:42.798Z,7.46
2023-01-09T23:50:14.348Z,7.46
2023-01-09T23:52:45.849Z,7.46
2023-01-09T23:55:16.969Z,7.46
2023-01-09T23:57:48.285Z,7.47
